Time;durP1;ratioP1;P1;durP2;ratioP2;P2;SDS_P1;SDS_P2;PMS_P1;PMS_P2;Temp;Humidity;BMP_temperature;BMP_pressure;BME280_temperature;BME280_humidity;BME280_pressure;Samples;Min_cycle;Max_cycle;Signal;HPM_P1;HPM_P2
2023/01/18 01:26:15;;;;;;;15.37;13.63;;;0.30;86.20;;;;;;5019065;28;20253;-92
2023/01/18 01:28:44;;;;;;;18.23;13.43;;;0.30;85.90;;;;;;5019175;28;20223;-93
2023/01/18 01:31:12;;;;;;;16.73;15.10;;;0.20;86.00;;;;;;5021457;28;20180;-93
2023/01/18 01:33:38;;;;;;;15.27;13.80;;;0.30;85.90;;;;;;5020814;28;20194;-94
2023/01/18 01:36:11;;;;;;;19.90;16.63;;;0.30;86.00;;;;;;5018897;28;20189;-93
2023/01/18 01:38:37;;;;;;;19.17;16.63;;;0.20;86.00;;;;;;5018602;28;20169;-93
2023/01/18 01:41:15;;;;;;;20.50;16.80;;;0.20;86.20;;;;;;5017072;28;20181;-93
2023/01/18 01:43:44;;;;;;;18.50;16.50;;;0.10;86.30;;;;;;5017489;28;20235;-93
2023/01/18 04:01:52;;;;;;;21.37;18.90;;;-0.60;88.80;;;;;;5011812;28;20215;-93
2023/01/18 05:17:29;;;;;;;21.73;19.27;;;-0.20;87.50;;;;;;5018113;28;20192;-93
2023/01/18 05:19:59;;;;;;;21.63;19.33;;;-0.30;87.50;;;;;;5020073;28;20189;-92
2023/01/18 05:22:28;;;;;;;22.83;20.43;;;-0.30;87.70;;;;;;5019610;28;20181;-93
2023/01/18 05:24:56;;;;;;;21.37;19.17;;;-0.40;87.90;;;;;;5019904;28;20182;-93
2023/01/18 05:27:25;;;;;;;28.43;19.97;;;-0.40;87.90;;;;;;5019640;28;20197;-93
2023/01/18 05:29:51;;;;;;;21.43;17.17;;;-0.50;88.00;;;;;;5019741;28;20163;-91
2023/01/18 05:32:22;;;;;;;21.53;19.47;;;-0.40;88.00;;;;;;5019529;28;20170;-93
2023/01/18 05:34:52;;;;;;;23.60;21.20;;;-0.40;87.80;;;;;;5019693;28;20197;-92
2023/01/18 05:37:18;;;;;;;24.37;20.63;;;-0.40;87.80;;;;;;5019729;28;20171;-91
2023/01/18 05:39:44;;;;;;;25.87;22.03;;;-0.50;88.20;;;;;;5019586;28;20167;-92
2023/01/18 05:42:18;;;;;;;23.63;20.77;;;-0.60;88.60;;;;;;5019502;28;20158;-92
2023/01/18 05:44:44;;;;;;;27.50;23.00;;;-0.70;88.80;;;;;;5018884;28;20194;-93
2023/01/18 05:47:15;;;;;;;28.20;22.37;;;-0.70;88.70;;;;;;5019170;28;20213;-92
2023/01/18 05:49:41;;;;;;;26.30;22.03;;;-0.80;88.40;;;;;;5019398;28;20221;-92
2023/01/18 05:52:09;;;;;;;28.50;23.27;;;-0.80;88.40;;;;;;5019255;28;20246;-93
2023/01/18 05:54:35;;;;;;;27.30;23.77;;;-0.80;88.40;;;;;;5019231;28;20182;-92
2023/01/18 05:57:01;;;;;;;30.27;25.20;;;-0.90;88.40;;;;;;5019408;28;20217;-92
2023/01/18 05:59:27;;;;;;;29.87;25.07;;;-1.00;88.50;;;;;;5019256;28;20429;-92
2023/01/18 06:01:52;;;;;;;34.60;26.27;;;-1.00;88.60;;;;;;5019200;28;20174;-92
2023/01/18 06:04:18;;;;;;;29.67;26.47;;;-1.00;88.60;;;;;;5019021;28;20185;-93
2023/01/18 06:06:44;;;;;;;30.00;25.40;;;-1.10;88.70;;;;;;5019084;28;20210;-92
2023/01/18 06:09:09;;;;;;;33.00;28.63;;;-1.00;88.90;;;;;;5019062;28;20175;-92
2023/01/18 06:11:35;;;;;;;34.33;25.93;;;-1.10;88.90;;;;;;5019153;28;20183;-92
2023/01/18 06:14:01;;;;;;;34.63;26.63;;;-1.10;88.90;;;;;;5019084;28;20193;-91
2023/01/18 06:16:26;;;;;;;38.53;27.23;;;-1.10;88.90;;;;;;5018920;28;20191;-93
2023/01/18 06:18:52;;;;;;;30.03;25.63;;;-1.00;89.00;;;;;;5019086;28;20167;-91
2023/01/18 06:21:18;;;;;;;32.33;26.27;;;-1.20;88.80;;;;;;5018890;28;20167;-92
2023/01/18 06:23:44;;;;;;;34.97;27.70;;;-1.20;88.80;;;;;;5018818;28;20188;-92
2023/01/18 06:26:09;;;;;;;29.80;26.57;;;-1.20;88.80;;;;;;5018874;28;20167;-90
2023/01/18 06:28:35;;;;;;;33.73;27.07;;;-1.20;88.80;;;;;;5018101;28;20224;-91
2023/01/18 06:31:03;;;;;;;32.00;26.43;;;-1.30;89.00;;;;;;5018473;28;20188;-93
2023/01/18 06:33:29;;;;;;;29.90;23.77;;;-1.30;89.40;;;;;;5018146;28;20201;-92
2023/01/18 06:35:55;;;;;;;30.13;25.37;;;-1.30;89.70;;;;;;5018280;28;20198;-93
2023/01/18 06:38:20;;;;;;;36.83;26.03;;;-1.30;89.80;;;;;;5018404;28;20172;-93
2023/01/18 06:40:46;;;;;;;31.83;25.27;;;-1.20;89.90;;;;;;5018628;28;20258;-92
2023/01/18 06:43:12;;;;;;;33.57;25.93;;;-1.10;89.90;;;;;;5017782;28;20212;-93
2023/01/18 06:45:38;;;;;;;32.30;25.60;;;-1.20;89.70;;;;;;5018683;28;20166;-92
2023/01/18 06:48:04;;;;;;;31.93;27.37;;;-1.20;89.60;;;;;;5018648;28;20265;-92
2023/01/18 06:50:30;;;;;;;32.33;28.53;;;-1.20;89.50;;;;;;5018752;28;20169;-92
2023/01/18 06:52:58;;;;;;;32.13;26.83;;;-1.20;89.40;;;;;;5018571;28;20202;-91
2023/01/18 06:55:24;;;;;;;30.23;24.60;;;-1.30;89.40;;;;;;5018523;28;20159;-92
2023/01/18 06:57:50;;;;;;;28.87;25.73;;;-1.30;89.50;;;;;;5018476;28;20159;-91
2023/01/18 07:00:16;;;;;;;33.33;28.03;;;-1.30;89.40;;;;;;5018664;28;20193;-92
2023/01/18 07:02:41;;;;;;;34.83;27.47;;;-1.40;89.30;;;;;;5018377;28;20167;-93
2023/01/18 07:05:08;;;;;;;33.83;27.47;;;-1.40;89.30;;;;;;5018483;28;20175;-94
2023/01/18 07:07:33;;;;;;;38.47;28.47;;;-1.40;89.30;;;;;;5018428;28;20196;-92
2023/01/18 07:09:59;;;;;;;33.00;29.03;;;-1.40;89.30;;;;;;5018560;28;20186;-93
2023/01/18 07:12:25;;;;;;;34.03;27.80;;;-1.40;89.30;;;;;;5018598;28;20171;-91
2023/01/18 07:14:50;;;;;;;31.80;26.73;;;-1.60;89.20;;;;;;5018295;28;20193;-92
2023/01/18 07:17:16;;;;;;;30.37;27.03;;;-1.60;89.30;;;;;;5017943;28;20210;-93
2023/01/18 07:19:43;;;;;;;34.87;26.40;;;-1.60;89.40;;;;;;5017527;28;20187;-93
2023/01/18 07:22:09;;;;;;;34.70;26.73;;;-1.60;89.80;;;;;;5017425;28;20190;-93
2023/01/18 07:24:37;;;;;;;32.93;26.10;;;-1.60;90.10;;;;;;5018089;28;20217;-90
2023/01/18 07:27:03;;;;;;;37.20;28.70;;;-1.60;90.30;;;;;;5018210;28;20262;-91
2023/01/18 07:29:28;;;;;;;36.10;27.83;;;-1.60;90.40;;;;;;5018382;28;20174;-91
2023/01/18 07:31:55;;;;;;;34.97;28.57;;;-1.60;90.30;;;;;;5018359;28;20193;-92
2023/01/18 07:34:20;;;;;;;31.47;27.00;;;-1.60;90.20;;;;;;5018111;28;20182;-93
2023/01/18 07:36:46;;;;;;;32.50;28.17;;;-1.70;90.10;;;;;;5018856;28;20169;-93
2023/01/18 07:39:12;;;;;;;33.47;27.70;;;-1.70;90.10;;;;;;5018219;28;20189;-92
2023/01/18 07:41:37;;;;;;;37.50;28.90;;;-1.70;90.10;;;;;;5018170;28;20190;-93
2023/01/18 07:44:04;;;;;;;34.17;29.03;;;-1.80;90.20;;;;;;5017997;28;20188;-92
2023/01/18 07:46:30;;;;;;;35.77;28.20;;;-1.80;90.30;;;;;;5017313;28;20190;-93
2023/01/18 07:48:56;;;;;;;39.93;27.83;;;-1.80;90.50;;;;;;5018042;28;20170;-92
2023/01/18 07:51:22;;;;;;;30.57;26.93;;;-1.70;90.80;;;;;;5017913;28;20238;-93
2023/01/18 07:53:53;;;;;;;38.87;25.53;;;-1.60;91.00;;;;;;5018062;28;20189;-93
2023/01/18 07:56:19;;;;;;;37.03;27.87;;;-1.50;91.10;;;;;;5021137;28;20169;-93
2023/01/18 07:58:45;;;;;;;29.93;23.23;;;-1.40;91.00;;;;;;5020708;28;20188;-93
2023/01/18 08:01:14;;;;;;;33.60;26.97;;;-1.40;90.90;;;;;;5020584;28;20177;-94
2023/01/18 08:03:41;;;;;;;28.30;24.23;;;-1.30;90.70;;;;;;5020433;28;20221;-93
2023/01/18 08:06:08;;;;;;;35.67;25.67;;;-1.30;90.60;;;;;;5021211;28;20613;-93
2023/01/18 08:08:38;;;;;;;36.40;27.20;;;-1.30;90.50;;;;;;5021227;28;20208;-94
2023/01/18 08:11:05;;;;;;;38.47;27.20;;;-1.20;90.40;;;;;;5021253;28;20185;-93
2023/01/18 08:13:31;;;;;;;35.60;28.50;;;-1.30;90.20;;;;;;5020956;28;20225;-92
2023/01/18 08:16:04;;;;;;;35.47;27.03;;;-1.30;90.20;;;;;;5021113;28;20190;-92
2023/01/18 08:18:30;;;;;;;34.00;27.73;;;-1.30;90.10;;;;;;5021121;28;20169;-92
2023/01/18 08:20:56;;;;;;;37.57;26.90;;;-1.40;90.00;;;;;;5021070;28;20169;-92
2023/01/18 08:23:22;;;;;;;38.43;27.10;;;-1.40;89.90;;;;;;5021022;28;20254;-92
2023/01/18 08:25:51;;;;;;;33.73;27.77;;;-1.40;89.90;;;;;;5021036;28;20482;-91
2023/01/18 08:28:18;;;;;;;37.47;29.37;;;-1.50;89.90;;;;;;5020938;28;20568;-91
2023/01/18 08:30:46;;;;;;;36.77;28.40;;;-1.50;89.90;;;;;;5021184;28;20226;-92
2023/01/18 08:33:17;;;;;;;36.17;29.53;;;-1.50;89.90;;;;;;5020251;28;20207;-92
2023/01/18 08:35:45;;;;;;;41.27;31.60;;;-1.40;90.00;;;;;;5020880;28;20165;-91
2023/01/18 08:38:14;;;;;;;50.77;36.97;;;-1.30;90.00;;;;;;5000170;28;20179;-92
2023/01/18 08:40:40;;;;;;;40.30;31.93;;;-1.30;90.00;;;;;;4997396;28;20603;-93
2023/01/18 08:43:09;;;;;;;45.83;33.73;;;-1.40;90.00;;;;;;4998455;28;20555;-93
2023/01/18 08:45:41;;;;;;;43.87;34.30;;;-1.40;90.00;;;;;;5005929;28;20182;-92
2023/01/18 08:51:03;;;;;;;44.30;31.57;;;-1.30;90.00;;;;;;5200191;22;20235;-94
2023/01/18 08:53:30;;;;;;;37.17;31.10;;;-1.40;90.00;;;;;;5018021;28;20193;-94
2023/01/18 08:56:05;;;;;;;43.13;33.07;;;-1.30;90.00;;;;;;5020123;28;20166;-94
2023/01/18 08:58:31;;;;;;;41.47;32.77;;;-1.30;90.10;;;;;;5255600;23;20290;-92
2023/01/18 09:01:02;;;;;;;40.77;31.83;;;-1.30;90.10;;;;;;5039298;28;20187;-92
2023/01/18 09:03:28;;;;;;;39.83;32.57;;;-1.30;90.20;;;;;;5039840;28;20253;-90
2023/01/18 09:05:54;;;;;;;46.13;35.20;;;-1.30;90.20;;;;;;5038077;28;20178;-95
2023/01/18 09:08:20;;;;;;;40.70;33.70;;;-1.20;90.20;;;;;;5175180;23;20206;-94
2023/01/18 09:10:46;;;;;;;41.77;33.70;;;-1.30;90.20;;;;;;4993755;28;20187;-94
2023/01/18 09:13:11;;;;;;;41.83;33.17;;;-1.20;90.30;;;;;;4988255;28;20199;-94
2023/01/18 09:15:37;;;;;;;39.63;34.00;;;-1.10;90.30;;;;;;4986329;28;20537;-95
2023/01/18 09:18:05;;;;;;;42.33;33.73;;;-1.10;90.30;;;;;;4998521;28;20191;-94
2023/01/18 09:20:34;;;;;;;37.10;30.73;;;-1.10;90.30;;;;;;4994124;28;20254;-93
2023/01/18 09:23:06;;;;;;;35.00;30.17;;;-1.00;90.40;;;;;;4979645;28;20198;-93
2023/01/18 09:25:32;;;;;;;44.43;28.83;;;-0.90;90.30;;;;;;4992614;28;20159;-92
2023/01/18 09:28:00;;;;;;;42.70;27.90;;;-0.80;90.10;;;;;;4994777;28;20202;-94
2023/01/18 09:30:26;;;;;;;39.67;26.83;;;-0.70;89.80;;;;;;4995217;28;20641;-94
2023/01/18 09:32:51;;;;;;;34.60;27.63;;;-0.60;89.60;;;;;;4995663;28;20210;-94
2023/01/18 09:35:17;;;;;;;31.40;27.43;;;-0.60;89.70;;;;;;4993325;28;20183;-94
2023/01/18 09:37:44;;;;;;;33.70;29.20;;;-0.50;89.60;;;;;;4996238;28;20187;-94
2023/01/18 09:40:19;;;;;;;36.10;27.93;;;-0.50;89.60;;;;;;4997178;28;20170;-94
2023/01/18 09:42:47;;;;;;;34.87;25.60;;;-0.50;89.30;;;;;;4986242;28;20167;-92
2023/01/18 09:45:30;;;;;;;32.07;27.33;;;-0.40;89.00;;;;;;5057091;23;20218;-94
2023/01/18 09:48:04;;;;;;;33.53;27.10;;;-0.40;88.80;;;;;;5011922;28;20301;-94
2023/01/18 09:50:35;;;;;;;30.67;24.90;;;-0.30;88.50;;;;;;5015897;28;20172;-94
2023/01/18 09:53:15;;;;;;;39.37;24.90;;;-0.20;88.40;;;;;;5017765;28;20182;-92
2023/01/18 09:56:19;;;;;;;33.33;26.43;;;-0.10;88.30;;;;;;5019120;28;20166;-94
2023/01/18 09:59:01;;;;;;;33.77;23.77;;;0.00;88.10;;;;;;5002359;28;20234;-93
2023/01/18 10:01:32;;;;;;;34.63;25.33;;;0.00;87.90;;;;;;5019291;28;20150;-93
2023/01/18 10:04:31;;;;;;;33.40;26.73;;;0.00;87.50;;;;;;5056109;23;20218;-94
2023/01/18 10:07:07;;;;;;;33.57;25.70;;;0.10;87.50;;;;;;5017047;28;20253;-93
2023/01/18 10:09:40;;;;;;;39.73;27.50;;;0.10;87.40;;;;;;5008968;28;20187;-94
2023/01/18 10:12:22;;;;;;;46.33;28.40;;;0.20;87.50;;;;;;5013090;28;20187;-94
2023/01/18 10:17:59;;;;;;;33.03;28.17;;;0.20;87.70;;;;;;1024894;23;20565;-93
2023/01/18 10:20:31;;;;;;;34.60;27.57;;;0.30;87.90;;;;;;5015620;28;20645;-92
2023/01/18 10:25:43;;;;;;;28.93;25.00;;;0.30;88.00;;;;;;3293247;26;20238;-93
2023/01/18 10:28:25;;;;;;;35.10;25.37;;;0.40;87.70;;;;;;5019599;28;20196;-93
2023/01/18 10:31:02;;;;;;;31.67;26.03;;;0.50;87.50;;;;;;5019368;28;20161;-90
2023/01/18 10:33:34;;;;;;;24.33;20.23;;;0.50;87.50;;;;;;5018208;28;20227;-92
2023/01/18 10:36:17;;;;;;;27.13;23.47;;;0.60;86.50;;;;;;5020767;28;20240;-91
2023/01/18 11:48:56;;;;;;;26.07;23.30;;;2.50;81.50;;;;;;5148143;22;20754;-89
2023/01/18 11:56:44;;;;;;;24.27;21.67;;;2.50;80.70;;;;;;5836663;23;20250;-94
2023/01/18 11:59:29;;;;;;;22.23;19.57;;;2.50;81.40;;;;;;5020516;28;20207;-93
2023/01/18 12:20:28;;;;;;;27.30;22.37;;;2.90;80.40;;;;;;5111101;23;20229;-94
2023/01/18 12:23:41;;;;;;;24.27;21.87;;;2.90;79.70;;;;;;5023579;28;20189;-92
2023/01/18 12:26:58;;;;;;;23.00;20.50;;;2.90;79.70;;;;;;4927540;29;20190;-92
2023/01/18 12:30:18;;;;;;;23.37;20.83;;;2.90;79.40;;;;;;5003277;28;20210;-94
2023/01/18 12:38:12;;;;;;;30.87;28.10;;;3.20;78.90;;;;;;5095698;22;20221;-93
2023/01/18 12:41:12;;;;;;;32.67;29.57;;;3.20;77.70;;;;;;5343759;23;20218;-92
2023/01/18 12:44:17;;;;;;;33.03;30.07;;;3.30;78.50;;;;;;5020572;28;20210;-93
2023/01/18 12:51:56;;;;;;;33.97;30.43;;;3.40;78.40;;;;;;4997214;28;20213;-92
2023/01/18 12:54:30;;;;;;;33.53;30.47;;;3.40;78.80;;;;;;5002530;28;20270;-92
2023/01/18 12:56:58;;;;;;;31.70;28.93;;;3.50;78.90;;;;;;5009097;28;20547;-94
2023/01/18 12:59:39;;;;;;;32.77;29.90;;;3.40;77.80;;;;;;5010059;28;20190;-93
2023/01/18 13:02:32;;;;;;;30.90;28.10;;;3.50;78.20;;;;;;5002492;28;20174;-93
2023/01/18 13:05:19;;;;;;;32.30;29.43;;;3.50;77.20;;;;;;5007973;28;20206;-93
2023/01/18 13:07:54;;;;;;;33.70;30.27;;;3.60;77.50;;;;;;5010852;28;20560;-93
2023/01/18 13:10:23;;;;;;;31.37;28.57;;;3.50;77.60;;;;;;5000305;28;20170;-93
2023/01/18 13:12:50;;;;;;;31.40;28.13;;;3.50;77.00;;;;;;5000060;28;20224;-93
2023/01/18 13:15:34;;;;;;;30.53;27.60;;;3.60;77.20;;;;;;4998779;28;20760;-91
2023/01/18 13:18:23;;;;;;;30.77;27.87;;;3.50;76.20;;;;;;4994178;28;20183;-91
2023/01/18 13:21:24;;;;;;;29.33;26.53;;;3.60;77.20;;;;;;4996169;28;20174;-92
2023/01/18 13:24:14;;;;;;;29.83;26.93;;;3.40;76.90;;;;;;4997958;28;20756;-92
2023/01/18 13:26:40;;;;;;;27.73;25.10;;;3.40;77.20;;;;;;4999509;28;20628;-92
2023/01/18 13:29:09;;;;;;;29.73;27.03;;;3.40;77.30;;;;;;4995767;28;20175;-90
2023/01/18 13:31:36;;;;;;;31.33;28.63;;;3.50;76.70;;;;;;4995225;28;20229;-91
2023/01/18 13:34:02;;;;;;;31.60;28.73;;;3.40;77.20;;;;;;4996199;28;20234;-92
2023/01/18 13:36:43;;;;;;;30.97;28.20;;;3.40;77.50;;;;;;4998113;28;20186;-92
2023/01/18 13:39:14;;;;;;;30.73;27.50;;;3.30;77.40;;;;;;5001464;28;20554;-92
2023/01/18 13:42:02;;;;;;;24.40;22.40;;;3.30;77.50;;;;;;4997489;28;20170;-92
2023/01/18 13:44:46;;;;;;;30.77;27.97;;;3.20;77.60;;;;;;4995298;28;20206;-92
2023/01/18 13:47:38;;;;;;;30.00;27.17;;;3.30;77.80;;;;;;4995798;28;20202;-92
2023/01/18 13:50:26;;;;;;;30.60;27.37;;;3.30;77.40;;;;;;4994558;28;20248;-91
2023/01/18 13:53:13;;;;;;;25.93;23.73;;;3.30;77.80;;;;;;4994538;28;20181;-91
2023/01/18 13:55:40;;;;;;;31.27;28.53;;;3.20;77.30;;;;;;4993542;28;20251;-92
2023/01/18 13:58:30;;;;;;;27.73;25.23;;;3.20;78.00;;;;;;4993869;28;20196;-91
2023/01/18 14:01:02;;;;;;;28.03;25.73;;;3.10;78.50;;;;;;4986923;28;20575;-89
2023/01/18 14:03:31;;;;;;;28.67;25.77;;;3.10;78.10;;;;;;4994385;28;20201;-90
2023/01/18 14:05:57;;;;;;;32.67;29.23;;;3.00;78.80;;;;;;4993122;28;20237;-90
2023/01/18 14:08:28;;;;;;;30.80;27.80;;;3.10;78.40;;;;;;4994753;28;20610;-91
2023/01/18 14:11:22;;;;;;;29.03;26.33;;;3.00;78.70;;;;;;4994181;28;20174;-91
2023/01/18 14:13:53;;;;;;;30.77;28.07;;;2.90;78.80;;;;;;4995050;28;20551;-92
2023/01/18 14:16:24;;;;;;;29.10;26.20;;;2.80;79.20;;;;;;4993410;28;20166;-91
2023/01/18 14:18:59;;;;;;;31.13;28.00;;;2.80;80.30;;;;;;4993905;28;20175;-92
2023/01/18 14:21:36;;;;;;;29.40;26.73;;;2.70;79.90;;;;;;4996880;28;20169;-92
2023/01/18 14:24:18;;;;;;;29.50;27.00;;;2.70;79.80;;;;;;4994743;28;20190;-91
2023/01/18 14:26:44;;;;;;;29.10;26.20;;;2.60;79.90;;;;;;4992800;28;20245;-90
2023/01/18 14:29:18;;;;;;;29.20;26.50;;;2.50;80.60;;;;;;4994299;28;20194;-90
2023/01/18 14:31:52;;;;;;;26.83;24.23;;;2.50;80.60;;;;;;4993742;28;20173;-89
2023/01/18 14:34:37;;;;;;;30.97;27.97;;;2.50;80.50;;;;;;4993194;28;20252;-89
2023/01/18 14:37:25;;;;;;;30.60;27.57;;;2.50;80.70;;;;;;4992709;28;20260;-89
2023/01/18 14:40:21;;;;;;;32.13;28.93;;;2.50;80.30;;;;;;4994077;28;20155;-88
2023/01/18 14:42:59;;;;;;;31.27;28.27;;;2.50;80.40;;;;;;4987173;28;20272;-90
2023/01/18 14:45:28;;;;;;;30.57;27.60;;;2.40;80.30;;;;;;4993953;28;20243;-90
2023/01/18 14:48:01;;;;;;;32.93;27.77;;;2.40;80.40;;;;;;4992637;28;20205;-90
2023/01/18 14:50:31;;;;;;;29.97;27.13;;;2.40;80.60;;;;;;4994142;28;20640;-90
2023/01/18 14:52:57;;;;;;;30.50;27.90;;;2.40;80.50;;;;;;4992786;28;20277;-92
2023/01/18 14:55:32;;;;;;;32.30;29.60;;;2.30;80.80;;;;;;4994769;28;20249;-87
2023/01/18 14:58:15;;;;;;;30.13;27.43;;;2.30;80.90;;;;;;4994951;28;20185;-92
2023/01/18 15:00:52;;;;;;;31.77;28.70;;;2.20;81.10;;;;;;4995489;28;20174;-90
2023/01/18 15:03:25;;;;;;;32.00;28.97;;;2.20;81.20;;;;;;4995124;28;20198;-91
2023/01/18 15:06:01;;;;;;;32.87;29.77;;;2.00;81.40;;;;;;4996631;28;20184;-91
2023/01/18 15:08:29;;;;;;;33.33;29.57;;;2.00;81.90;;;;;;4998162;28;20199;-91
2023/01/18 15:10:55;;;;;;;32.27;29.30;;;2.00;82.10;;;;;;4997081;28;20582;-92
2023/01/18 15:13:25;;;;;;;31.00;27.97;;;1.90;82.40;;;;;;5000033;28;20194;-91
2023/01/18 15:15:53;;;;;;;30.90;28.03;;;1.80;82.50;;;;;;5002805;28;20224;-91
2023/01/18 15:18:21;;;;;;;32.40;29.10;;;1.80;82.70;;;;;;5000261;28;20252;-90
2023/01/18 15:20:55;;;;;;;31.07;28.27;;;1.80;82.80;;;;;;4996674;28;20171;-89
2023/01/18 15:23:22;;;;;;;31.93;28.73;;;1.80;82.60;;;;;;4997736;28;20189;-89
2023/01/18 15:25:50;;;;;;;30.13;27.27;;;1.70;82.70;;;;;;4997504;28;20309;-89
2023/01/18 15:28:17;;;;;;;30.60;27.80;;;1.50;82.90;;;;;;4996376;28;20229;-89
2023/01/18 15:30:51;;;;;;;28.90;26.07;;;1.50;83.10;;;;;;4997541;28;20174;-89
2023/01/18 15:33:19;;;;;;;28.93;26.13;;;1.50;83.30;;;;;;4996769;28;20194;-89
2023/01/18 15:35:45;;;;;;;22.53;20.37;;;1.50;83.40;;;;;;4996032;28;20181;-89
2023/01/18 15:38:11;;;;;;;22.27;19.63;;;1.40;83.70;;;;;;4995982;28;20189;-89
2023/01/18 15:40:42;;;;;;;22.17;19.90;;;1.30;83.80;;;;;;4996303;28;20564;-89
2023/01/18 15:43:18;;;;;;;24.73;20.07;;;1.30;83.90;;;;;;4996804;28;20258;-89
2023/01/18 15:45:48;;;;;;;21.93;19.73;;;1.30;84.00;;;;;;4996588;28;20257;-89
2023/01/18 15:48:21;;;;;;;24.07;20.23;;;1.30;84.10;;;;;;4995951;28;20248;-89
2023/01/18 15:50:50;;;;;;;23.43;18.87;;;1.20;84.40;;;;;;4996066;28;20252;-89
2023/01/18 15:53:30;;;;;;;22.03;19.53;;;1.10;84.40;;;;;;4995653;28;20202;-89
2023/01/18 15:55:59;;;;;;;24.37;20.13;;;1.00;84.70;;;;;;4996441;28;20172;-89
2023/01/18 15:58:33;;;;;;;21.97;19.77;;;1.00;84.80;;;;;;4995915;28;20177;-89
2023/01/18 16:01:06;;;;;;;24.88;21.35;;;1.00;84.90;;;;;;4995006;28;20416;-89
2023/01/18 16:03:44;;;;;;;22.40;19.43;;;1.00;84.90;;;;;;4996131;28;20213;-89
2023/01/18 16:06:19;;;;;;;22.27;19.27;;;0.90;85.00;;;;;;4995925;28;20229;-89
2023/01/18 16:09:09;;;;;;;21.03;18.27;;;0.80;85.10;;;;;;4995875;28;20296;-89
2023/01/18 16:11:40;;;;;;;20.63;17.73;;;0.80;85.20;;;;;;4996422;28;20181;-88
2023/01/18 16:14:20;;;;;;;28.77;19.50;;;0.80;85.30;;;;;;4995235;28;20201;-89
2023/01/18 16:16:46;;;;;;;22.63;17.93;;;0.80;85.50;;;;;;4995423;28;20225;-88
2023/01/18 16:19:33;;;;;;;25.63;17.90;;;0.80;85.70;;;;;;4996694;28;20182;-87
2023/01/18 16:22:04;;;;;;;22.50;17.43;;;0.80;85.80;;;;;;4996332;28;20159;-88
2023/01/18 16:24:54;;;;;;;23.50;17.77;;;0.80;85.70;;;;;;4995264;28;20197;-87
2023/01/18 16:27:23;;;;;;;20.97;16.43;;;0.80;85.50;;;;;;4996489;28;20189;-86
2023/01/18 16:30:01;;;;;;;20.80;17.53;;;0.80;85.50;;;;;;4994975;28;20276;-88
2023/01/18 16:32:35;;;;;;;25.07;18.20;;;0.80;85.40;;;;;;4996418;28;20173;-88
2023/01/18 16:35:21;;;;;;;21.60;17.80;;;0.80;85.40;;;;;;4995048;28;20203;-88
2023/01/18 16:37:48;;;;;;;21.07;17.20;;;0.80;85.40;;;;;;4994636;28;20206;-87
2023/01/18 16:40:17;;;;;;;23.37;18.57;;;0.80;85.40;;;;;;4996228;28;20258;-87
2023/01/18 16:43:01;;;;;;;22.23;17.37;;;0.80;85.40;;;;;;4994846;28;20194;-86
2023/01/18 16:45:28;;;;;;;19.80;16.30;;;0.80;85.50;;;;;;4994767;28;20189;-86
2023/01/18 16:47:54;;;;;;;25.20;19.33;;;0.80;85.60;;;;;;4995727;28;20212;-87
2023/01/18 16:50:20;;;;;;;22.73;17.80;;;0.70;85.80;;;;;;4994429;28;20671;-89
2023/01/18 16:52:45;;;;;;;25.03;18.07;;;0.80;86.00;;;;;;4994610;28;20178;-89
2023/01/18 16:55:13;;;;;;;23.27;18.97;;;0.80;85.80;;;;;;4994576;28;20221;-89
2023/01/18 16:57:38;;;;;;;28.23;19.47;;;0.80;85.70;;;;;;4994510;28;20558;-91
2023/01/18 17:00:18;;;;;;;21.77;18.17;;;0.80;85.60;;;;;;4994500;28;20182;-89
2023/01/18 17:02:47;;;;;;;30.50;18.10;;;0.70;85.60;;;;;;4995502;28;20184;-90
2023/01/18 17:05:14;;;;;;;26.20;17.97;;;0.80;85.60;;;;;;4995614;28;20727;-91
2023/01/18 17:07:40;;;;;;;22.17;18.70;;;0.70;85.60;;;;;;4994607;28;20683;-91
2023/01/18 17:10:32;;;;;;;20.03;16.97;;;0.70;85.70;;;;;;4995701;28;20170;-91
2023/01/18 17:12:58;;;;;;;22.87;18.27;;;0.70;85.70;;;;;;4987820;28;20202;-91
2023/01/18 17:15:27;;;;;;;22.40;17.00;;;0.70;85.80;;;;;;4994587;28;20188;-91
2023/01/18 17:17:52;;;;;;;24.87;19.30;;;0.60;85.80;;;;;;4995543;28;20169;-91
2023/01/18 17:20:22;;;;;;;25.70;18.60;;;0.70;86.00;;;;;;4994465;28;20185;-91
2023/01/18 17:22:49;;;;;;;29.17;18.77;;;0.70;85.90;;;;;;4994378;28;20178;-91
2023/01/18 17:25:15;;;;;;;22.33;18.73;;;0.70;85.90;;;;;;4994339;28;20227;-91
2023/01/18 17:27:41;;;;;;;27.53;20.03;;;0.60;86.00;;;;;;4993526;28;20332;-91
2023/01/18 17:30:08;;;;;;;27.50;18.87;;;0.60;86.10;;;;;;4995530;28;20177;-90
2023/01/18 17:32:34;;;;;;;26.57;19.47;;;0.60;86.00;;;;;;4993829;28;20174;-90
2023/01/18 17:34:59;;;;;;;21.77;19.47;;;0.60;86.10;;;;;;4994048;28;20702;-91
2023/01/18 17:37:25;;;;;;;23.13;18.07;;;0.50;86.30;;;;;;4995461;28;20730;-90
2023/01/18 17:39:50;;;;;;;26.47;18.67;;;0.50;86.30;;;;;;4994610;28;20176;-90
2023/01/18 17:42:16;;;;;;;23.70;18.80;;;0.50;86.30;;;;;;4994469;28;20175;-88
2023/01/18 17:44:42;;;;;;;25.40;19.27;;;0.50;86.30;;;;;;4996663;28;20205;-91
2023/01/18 17:47:07;;;;;;;21.70;16.73;;;0.50;86.20;;;;;;4994164;28;20290;-91
2023/01/18 17:49:33;;;;;;;26.43;17.97;;;0.50;86.30;;;;;;4994621;28;20188;-91
2023/01/18 17:51:58;;;;;;;24.63;18.90;;;0.50;86.40;;;;;;4994719;28;20242;-92
2023/01/18 17:54:24;;;;;;;23.93;18.30;;;0.50;86.30;;;;;;4996884;28;20189;-93
2023/01/18 17:56:50;;;;;;;26.37;20.00;;;0.50;86.40;;;;;;5000002;28;20583;-93
2023/01/18 17:59:21;;;;;;;25.13;19.13;;;0.50;86.40;;;;;;5013475;28;20174;-94
2023/01/18 18:01:46;;;;;;;32.83;18.63;;;0.50;86.40;;;;;;5008794;28;20178;-92
2023/01/18 18:04:12;;;;;;;22.73;18.73;;;0.40;86.40;;;;;;4997803;28;20197;-93
2023/01/18 18:06:39;;;;;;;25.20;18.60;;;0.40;86.40;;;;;;4995750;28;20675;-93
2023/01/18 18:10:00;;;;;;;;;;;;;;;;;;;;;
2023/01/18 18:45:12;;;;;;;21.77;18.20;;;0.30;86.80;;;;;;5001080;28;20210;-93
2023/01/18 18:47:37;;;;;;;27.53;19.40;;;0.30;86.80;;;;;;5003572;28;20215;-93
2023/01/18 18:50:06;;;;;;;22.37;18.27;;;0.30;86.70;;;;;;5001263;28;20176;-93
2023/01/18 18:52:41;;;;;;;26.93;19.90;;;0.30;86.90;;;;;;5003230;28;20180;-93
2023/01/18 18:55:08;;;;;;;33.93;19.37;;;0.30;86.80;;;;;;4981081;28;20180;-93
2023/01/18 18:57:36;;;;;;;26.97;21.80;;;0.30;86.90;;;;;;4984358;28;20209;-94
2023/01/18 19:00:39;;;;;;;22.87;19.23;;;0.30;86.90;;;;;;4985646;28;20196;-93
2023/01/18 19:06:15;;;;;;;21.23;18.97;;;0.30;87.10;;;;;;5013228;22;20236;-93
2023/01/18 19:08:41;;;;;;;26.90;20.17;;;0.30;87.10;;;;;;5010635;28;20182;-93
2023/01/18 19:11:07;;;;;;;30.33;20.67;;;0.30;87.10;;;;;;5008131;28;20257;-92
2023/01/18 19:13:32;;;;;;;26.23;20.27;;;0.30;87.10;;;;;;5005424;28;20197;-93
2023/01/18 19:16:00;;;;;;;27.63;20.00;;;0.30;87.10;;;;;;5006808;28;20252;-92
2023/01/18 19:18:29;;;;;;;27.27;20.27;;;0.30;87.10;;;;;;5014076;28;20196;-94
2023/01/18 19:20:57;;;;;;;26.97;19.77;;;0.30;87.10;;;;;;5004589;28;20187;-94
2023/01/18 19:23:23;;;;;;;28.97;19.90;;;0.30;87.30;;;;;;5012699;28;20570;-93
2023/01/18 19:25:57;;;;;;;27.10;21.00;;;0.30;87.20;;;;;;5011494;28;20204;-94
2023/01/18 20:22:43;;;;;;;21.93;17.87;;;0.80;86.00;;;;;;4995586;28;20276;-89
2023/01/18 20:25:10;;;;;;;20.57;15.80;;;0.90;85.40;;;;;;4995350;28;20725;-91
2023/01/18 20:27:35;;;;;;;22.03;14.40;;;0.90;85.60;;;;;;4997736;28;20259;-91
2023/01/18 20:30:02;;;;;;;19.17;15.93;;;0.80;85.60;;;;;;4994978;28;20181;-91
2023/01/18 20:32:28;;;;;;;22.10;18.57;;;0.80;85.70;;;;;;4995081;28;20650;-91
2023/01/18 20:34:54;;;;;;;19.63;17.47;;;0.90;85.50;;;;;;4995022;28;20201;-91
2023/01/18 20:37:20;;;;;;;19.83;15.80;;;1.00;85.50;;;;;;4996192;28;20336;-91
2023/01/18 20:39:45;;;;;;;20.20;14.80;;;1.00;85.30;;;;;;4995174;28;20184;-88
2023/01/18 20:42:11;;;;;;;15.50;13.87;;;1.00;85.30;;;;;;4995177;28;20182;-91
2023/01/18 20:44:36;;;;;;;16.20;14.50;;;1.00;85.20;;;;;;4994713;28;20556;-90
2023/01/18 20:47:02;;;;;;;19.77;16.17;;;1.00;85.20;;;;;;4994630;28;20279;-90
2023/01/18 20:49:28;;;;;;;21.57;15.30;;;1.00;85.20;;;;;;4994839;28;20170;-89
2023/01/18 20:51:53;;;;;;;21.33;17.48;;;1.10;85.10;;;;;;4995559;28;20913;-90
2023/01/18 20:54:19;;;;;;;25.37;16.80;;;1.20;85.00;;;;;;4997145;28;20196;-91
2023/01/18 20:56:45;;;;;;;16.50;14.50;;;1.10;85.20;;;;;;4995641;28;20174;-90
2023/01/18 20:59:10;;;;;;;16.20;14.63;;;1.10;86.00;;;;;;4997137;28;20206;-92
2023/01/18 21:01:36;;;;;;;17.33;14.90;;;0.90;87.50;;;;;;4994594;28;20196;-91
2023/01/18 21:04:03;;;;;;;27.60;22.20;;;0.90;88.50;;;;;;4994603;28;20211;-91
2023/01/18 21:06:29;;;;;;;20.13;17.10;;;0.80;88.70;;;;;;4994384;28;20191;-91
2023/01/18 21:08:56;;;;;;;21.30;17.37;;;0.90;88.00;;;;;;4995396;28;20205;-89
2023/01/18 21:11:24;;;;;;;15.83;13.63;;;1.00;87.40;;;;;;4995274;28;20180;-89